TimeCDT,TemperatureF,Dew PointF,Humidity,Sea Level PressureIn,VisibilityMPH,Wind Direction,Wind SpeedMPH,Gust SpeedMPH,PrecipitationIn,Events,Conditions,WindDirDegrees,DateUTC
12:51 AM,69.8,60.8,73,29.98,8.0,SSE,13.8,-,N/A,,Partly Cloudy,160,2013-04-02 05:51:00
1:51 AM,68.0,61.0,78,29.96,7.0,South,13.8,-,N/A,,Clear,180,2013-04-02 06:51:00
2:51 AM,66.2,60.8,83,30.00,7.0,South,6.9,-,N/A,,Mostly Cloudy,190,2013-04-02 07:51:00
3:51 AM,64.9,60.1,84,29.97,7.0,SE,5.8,-,N/A,,Partly Cloudy,140,2013-04-02 08:51:00
4:51 AM,63.0,60.1,90,29.97,6.0,South,3.5,-,N/A,,Overcast,190,2013-04-02 09:51:00
5:51 AM,64.0,60.1,87,29.95,6.0,ESE,5.8,-,N/A,,Clear,120,2013-04-02 10:51:00
6:51 AM,64.0,60.1,87,29.93,6.0,SSE,6.9,-,N/A,,Scattered Clouds,160,2013-04-02 11:51:00
7:51 AM,62.6,59.0,88,29.98,4.0,ESE,3.5,-,N/A,,Clear,120,2013-04-02 12:51:00
8:24 AM,64.4,60.8,88,30.00,4.0,South,9.2,-,N/A,,Mostly Cloudy,170,2013-04-02 13:24:00
8:51 AM,64.0,60.1,87,29.98,4.0,SSE,6.9,-,N/A,,Mostly Cloudy,150,2013-04-02 13:51:00
9:28 AM,64.4,60.8,88,29.99,4.0,SE,6.9,-,N/A,,Haze,140,2013-04-02 14:28:00
9:51 AM,66.0,60.1,81,30.00,5.0,Calm,Calm,-,N/A,,Haze,0,2013-04-02 14:51:00
10:32 AM,68.0,60.8,78,30.00,5.0,SE,6.9,-,N/A,,Haze,130,2013-04-02 15:32:00
10:51 AM,68.0,61.0,78,29.99,5.0,East,5.8,-,N/A,,Haze,100,2013-04-02 15:51:00
11:51 AM,69.8,62.6,78,30.01,5.0,South,6.9,-,N/A,,Haze,170,2013-04-02 16:51:00
12:51 PM,71.1,61.0,70,29.98,6.0,Calm,Calm,-,N/A,,Haze,0,2013-04-02 17:51:00
1:51 PM,73.4,62.6,69,30.00,6.0,Calm,Calm,-,N/A,,Haze,0,2013-04-02 18:51:00
2:07 PM,71.6,62.6,73,29.99,6.0,NNW,6.9,-,N/A,,Haze,330,2013-04-02 19:07:00
2:51 PM,66.2,62.6,88,29.98,2.5,North,11.5,-,N/A,Rain,Light Rain,360,2013-04-02 19:51:00
3:00 PM,66.2,62.6,88,29.97,3.0,North,9.2,-,0.00,Rain,Light Rain,10,2013-04-02 20:00:00
3:51 PM,68.0,63.0,84,29.94,5.0,North,9.2,-,0.00,,Haze,350,2013-04-02 20:51:00
4:51 PM,69.1,62.1,78,29.88,9.0,East,11.5,-,N/A,,Mostly Cloudy,90,2013-04-02 21:51:00
5:51 PM,68.0,61.0,78,29.86,10.0,East,9.2,-,N/A,,Clear,80,2013-04-02 22:51:00
6:51 PM,69.8,60.8,73,29.91,10.0,ESE,6.9,-,N/A,,Mostly Cloudy,110,2013-04-02 23:51:00
7:51 PM,68.0,60.1,76,29.88,10.0,ENE,6.9,-,N/A,,Overcast,60,2013-04-03 00:51:00
8:51 PM,66.0,61.0,84,29.88,10.0,North,6.9,-,N/A,,Mostly Cloudy,10,2013-04-03 01:51:00
8:58 PM,66.2,60.8,83,29.91,10.0,North,8.1,-,N/A,,Overcast,350,2013-04-03 01:58:00
9:51 PM,66.9,61.0,81,29.89,8.0,NE,10.4,-,N/A,,Overcast,40,2013-04-03 02:51:00
10:51 PM,64.9,60.1,84,29.91,10.0,NE,15.0,-,N/A,,Overcast,50,2013-04-03 03:51:00
11:22 PM,64.4,59.0,83,29.92,10.0,NE,11.5,-,N/A,,Mostly Cloudy,50,2013-04-03 04:22:00
11:51 PM,64.9,57.9,78,29.90,10.0,NE,15.0,-,N/A,,Overcast,40,2013-04-03 04:51:00